sensor_id;sensor_type;location;lat;lon;timestamp;P1;durP1;ratioP1;P2;durP2;ratioP2
62679;SDS011;48746;55.578;37.902;2022-08-03T00:00:11;11.38;;;6.03;;
62679;SDS011;48746;55.578;37.902;2022-08-03T00:02:40;12.48;;;6.68;;
62679;SDS011;48746;55.578;37.902;2022-08-03T00:05:09;10.73;;;6.32;;
62679;SDS011;48746;55.578;37.902;2022-08-03T00:07:36;14.10;;;6.72;;
62679;SDS011;48746;55.578;37.902;2022-08-03T00:10:03;11.05;;;6.55;;
62679;SDS011;48746;55.578;37.902;2022-08-03T00:12:30;13.80;;;6.03;;
62679;SDS011;48746;55.578;37.902;2022-08-03T00:14:56;11.48;;;6.03;;
62679;SDS011;48746;55.578;37.902;2022-08-03T00:17:23;15.05;;;6.60;;
62679;SDS011;48746;55.578;37.902;2022-08-03T00:19:49;12.27;;;5.82;;
62679;SDS011;48746;55.578;37.902;2022-08-03T00:22:15;16.75;;;6.80;;
62679;SDS011;48746;55.578;37.902;2022-08-03T00:24:42;10.65;;;6.60;;
62679;SDS011;48746;55.578;37.902;2022-08-03T00:27:08;9.70;;;6.75;;
62679;SDS011;48746;55.578;37.902;2022-08-03T00:29:34;18.67;;;6.68;;
62679;SDS011;48746;55.578;37.902;2022-08-03T00:32:00;11.20;;;6.45;;
62679;SDS011;48746;55.578;37.902;2022-08-03T00:34:27;10.35;;;6.15;;
62679;SDS011;48746;55.578;37.902;2022-08-03T00:36:53;12.45;;;6.40;;
62679;SDS011;48746;55.578;37.902;2022-08-03T00:39:19;11.48;;;6.63;;
62679;SDS011;48746;55.578;37.902;2022-08-03T00:41:45;11.90;;;6.78;;
62679;SDS011;48746;55.578;37.902;2022-08-03T00:44:11;12.27;;;6.72;;
62679;SDS011;48746;55.578;37.902;2022-08-03T00:46:38;11.38;;;6.47;;
62679;SDS011;48746;55.578;37.902;2022-08-03T00:49:04;9.10;;;6.40;;
62679;SDS011;48746;55.578;37.902;2022-08-03T00:51:30;9.98;;;5.90;;
62679;SDS011;48746;55.578;37.902;2022-08-03T00:53:56;10.48;;;6.95;;
62679;SDS011;48746;55.578;37.902;2022-08-03T00:59:29;11.15;;;5.90;;
62679;SDS011;48746;55.578;37.902;2022-08-03T01:01:56;10.85;;;6.28;;
62679;SDS011;48746;55.578;37.902;2022-08-03T01:04:22;15.90;;;6.55;;
62679;SDS011;48746;55.578;37.902;2022-08-03T01:06:49;13.50;;;6.80;;
62679;SDS011;48746;55.578;37.902;2022-08-03T01:12:28;9.75;;;6.07;;
62679;SDS011;48746;55.578;37.902;2022-08-03T01:15:02;10.40;;;6.75;;
62679;SDS011;48746;55.578;37.902;2022-08-03T01:17:33;10.77;;;5.70;;
62679;SDS011;48746;55.578;37.902;2022-08-03T01:20:08;11.50;;;6.22;;
62679;SDS011;48746;55.578;37.902;2022-08-03T01:25:27;11.13;;;6.57;;
62679;SDS011;48746;55.578;37.902;2022-08-03T01:31:05;10.63;;;6.93;;
62679;SDS011;48746;55.578;37.902;2022-08-03T01:33:42;11.75;;;6.50;;
62679;SDS011;48746;55.578;37.902;2022-08-03T01:36:16;9.07;;;6.15;;
62679;SDS011;48746;55.578;37.902;2022-08-03T01:38:52;10.23;;;5.93;;
62679;SDS011;48746;55.578;37.902;2022-08-03T01:41:20;10.43;;;5.85;;
62679;SDS011;48746;55.578;37.902;2022-08-03T01:43:50;12.75;;;6.18;;
62679;SDS011;48746;55.578;37.902;2022-08-03T01:46:18;10.82;;;6.38;;
62679;SDS011;48746;55.578;37.902;2022-08-03T01:48:46;11.75;;;6.47;;
62679;SDS011;48746;55.578;37.902;2022-08-03T01:51:14;10.25;;;6.07;;
62679;SDS011;48746;55.578;37.902;2022-08-03T01:53:41;8.52;;;6.55;;
62679;SDS011;48746;55.578;37.902;2022-08-03T01:56:11;12.20;;;6.85;;
62679;SDS011;48746;55.578;37.902;2022-08-03T01:58:38;8.93;;;6.70;;
62679;SDS011;48746;55.578;37.902;2022-08-03T02:01:05;9.75;;;6.60;;
62679;SDS011;48746;55.578;37.902;2022-08-03T02:03:35;9.32;;;6.88;;
62679;SDS011;48746;55.578;37.902;2022-08-03T02:06:08;6.93;;;6.22;;
62679;SDS011;48746;55.578;37.902;2022-08-03T02:08:35;7.93;;;6.60;;
62679;SDS011;48746;55.578;37.902;2022-08-03T02:11:03;7.78;;;5.63;;
62679;SDS011;48746;55.578;37.902;2022-08-03T02:13:32;8.75;;;5.68;;
62679;SDS011;48746;55.578;37.902;2022-08-03T02:16:02;8.15;;;6.13;;
62679;SDS011;48746;55.578;37.902;2022-08-03T02:18:30;8.68;;;5.78;;
62679;SDS011;48746;55.578;37.902;2022-08-03T02:20:58;8.38;;;5.65;;
62679;SDS011;48746;55.578;37.902;2022-08-03T02:23:26;9.63;;;6.25;;
62679;SDS011;48746;55.578;37.902;2022-08-03T02:25:55;7.57;;;5.57;;
62679;SDS011;48746;55.578;37.902;2022-08-03T02:30:52;9.48;;;6.22;;
62679;SDS011;48746;55.578;37.902;2022-08-03T02:33:21;10.05;;;6.38;;
62679;SDS011;48746;55.578;37.902;2022-08-03T02:35:55;11.43;;;6.38;;
62679;SDS011;48746;55.578;37.902;2022-08-03T02:40:48;8.68;;;6.10;;
62679;SDS011;48746;55.578;37.902;2022-08-03T02:43:17;12.73;;;6.63;;
62679;SDS011;48746;55.578;37.902;2022-08-03T02:45:48;9.13;;;6.65;;
62679;SDS011;48746;55.578;37.902;2022-08-03T02:48:17;18.23;;;12.68;;
62679;SDS011;48746;55.578;37.902;2022-08-03T02:50:54;16.25;;;9.90;;
62679;SDS011;48746;55.578;37.902;2022-08-03T02:53:22;9.27;;;6.40;;
62679;SDS011;48746;55.578;37.902;2022-08-03T02:55:52;8.98;;;6.30;;
62679;SDS011;48746;55.578;37.902;2022-08-03T02:58:20;10.00;;;6.40;;
62679;SDS011;48746;55.578;37.902;2022-08-03T03:00:49;12.40;;;6.60;;
62679;SDS011;48746;55.578;37.902;2022-08-03T03:05:48;12.65;;;6.72;;
62679;SDS011;48746;55.578;37.902;2022-08-03T03:08:16;11.70;;;6.85;;
62679;SDS011;48746;55.578;37.902;2022-08-03T03:10:45;10.95;;;6.15;;
62679;SDS011;48746;55.578;37.902;2022-08-03T03:13:12;10.98;;;6.50;;
62679;SDS011;48746;55.578;37.902;2022-08-03T03:15:43;9.40;;;6.68;;
62679;SDS011;48746;55.578;37.902;2022-08-03T03:18:10;13.40;;;6.80;;
62679;SDS011;48746;55.578;37.902;2022-08-03T03:20:38;9.15;;;6.97;;
62679;SDS011;48746;55.578;37.902;2022-08-03T03:23:05;10.32;;;7.32;;
62679;SDS011;48746;55.578;37.902;2022-08-03T03:25:35;11.55;;;6.80;;
62679;SDS011;48746;55.578;37.902;2022-08-03T03:28:02;10.27;;;6.93;;
62679;SDS011;48746;55.578;37.902;2022-08-03T03:30:29;8.15;;;6.47;;
62679;SDS011;48746;55.578;37.902;2022-08-03T03:32:56;10.40;;;7.00;;
62679;SDS011;48746;55.578;37.902;2022-08-03T03:35:26;9.82;;;6.45;;
62679;SDS011;48746;55.578;37.902;2022-08-03T03:37:52;12.43;;;6.25;;
62679;SDS011;48746;55.578;37.902;2022-08-03T03:40:19;9.73;;;6.88;;
62679;SDS011;48746;55.578;37.902;2022-08-03T03:42:46;9.20;;;6.90;;
62679;SDS011;48746;55.578;37.902;2022-08-03T03:45:16;10.90;;;7.22;;
62679;SDS011;48746;55.578;37.902;2022-08-03T03:47:42;12.95;;;6.80;;
62679;SDS011;48746;55.578;37.902;2022-08-03T03:50:09;12.43;;;6.75;;
62679;SDS011;48746;55.578;37.902;2022-08-03T03:52:35;12.30;;;7.00;;
62679;SDS011;48746;55.578;37.902;2022-08-03T03:55:05;20.90;;;11.55;;
62679;SDS011;48746;55.578;37.902;2022-08-03T03:57:32;21.75;;;14.15;;
62679;SDS011;48746;55.578;37.902;2022-08-03T03:59:59;11.70;;;7.18;;
62679;SDS011;48746;55.578;37.902;2022-08-03T04:02:25;9.95;;;6.18;;
62679;SDS011;48746;55.578;37.902;2022-08-03T04:04:52;10.00;;;6.93;;
62679;SDS011;48746;55.578;37.902;2022-08-03T04:07:40;11.35;;;7.53;;
62679;SDS011;48746;55.578;37.902;2022-08-03T04:10:30;9.10;;;6.47;;
62679;SDS011;48746;55.578;37.902;2022-08-03T04:13:17;9.77;;;7.10;;
62679;SDS011;48746;55.578;37.902;2022-08-03T04:15:49;8.95;;;6.80;;
62679;SDS011;48746;55.578;37.902;2022-08-03T04:18:15;12.38;;;8.50;;
62679;SDS011;48746;55.578;37.902;2022-08-03T04:20:43;11.07;;;6.38;;
62679;SDS011;48746;55.578;37.902;2022-08-03T04:23:10;9.20;;;6.40;;
62679;SDS011;48746;55.578;37.902;2022-08-03T04:25:41;10.90;;;6.82;;
62679;SDS011;48746;55.578;37.902;2022-08-03T04:30:35;9.30;;;6.78;;
62679;SDS011;48746;55.578;37.902;2022-08-03T04:33:02;17.10;;;7.85;;
62679;SDS011;48746;55.578;37.902;2022-08-03T04:35:30;14.55;;;7.82;;
62679;SDS011;48746;55.578;37.902;2022-08-03T04:37:59;12.05;;;7.00;;
62679;SDS011;48746;55.578;37.902;2022-08-03T04:40:38;8.90;;;6.43;;
62679;SDS011;48746;55.578;37.902;2022-08-03T04:43:06;10.75;;;6.47;;
62679;SDS011;48746;55.578;37.902;2022-08-03T04:48:41;11.95;;;6.85;;
62679;SDS011;48746;55.578;37.902;2022-08-03T04:51:08;10.38;;;6.10;;
62679;SDS011;48746;55.578;37.902;2022-08-03T04:53:35;10.85;;;7.07;;
62679;SDS011;48746;55.578;37.902;2022-08-03T04:59:09;10.27;;;6.60;;
62679;SDS011;48746;55.578;37.902;2022-08-03T05:01:36;13.05;;;6.40;;
62679;SDS011;48746;55.578;37.902;2022-08-03T05:04:02;10.88;;;6.25;;
62679;SDS011;48746;55.578;37.902;2022-08-03T05:06:29;7.68;;;6.60;;
62679;SDS011;48746;55.578;37.902;2022-08-03T05:08:55;10.63;;;6.78;;
62679;SDS011;48746;55.578;37.902;2022-08-03T05:11:21;19.83;;;6.63;;
62679;SDS011;48746;55.578;37.902;2022-08-03T05:13:47;14.07;;;6.80;;
62679;SDS011;48746;55.578;37.902;2022-08-03T05:16:17;15.73;;;6.50;;
62679;SDS011;48746;55.578;37.902;2022-08-03T05:18:44;12.13;;;7.07;;
62679;SDS011;48746;55.578;37.902;2022-08-03T05:21:10;22.77;;;7.93;;
62679;SDS011;48746;55.578;37.902;2022-08-03T05:23:39;23.08;;;7.53;;
62679;SDS011;48746;55.578;37.902;2022-08-03T05:26:09;19.95;;;8.05;;
62679;SDS011;48746;55.578;37.902;2022-08-03T05:28:37;27.67;;;9.15;;
62679;SDS011;48746;55.578;37.902;2022-08-03T05:31:04;24.90;;;7.82;;
62679;SDS011;48746;55.578;37.902;2022-08-03T05:33:30;19.17;;;8.73;;
62679;SDS011;48746;55.578;37.902;2022-08-03T05:35:56;25.73;;;8.18;;
62679;SDS011;48746;55.578;37.902;2022-08-03T05:38:24;35.10;;;8.50;;
62679;SDS011;48746;55.578;37.902;2022-08-03T05:40:51;23.50;;;7.78;;
62679;SDS011;48746;55.578;37.902;2022-08-03T05:43:17;17.02;;;7.78;;
62679;SDS011;48746;55.578;37.902;2022-08-03T05:45:46;30.15;;;8.68;;
62679;SDS011;48746;55.578;37.902;2022-08-03T05:48:12;37.42;;;8.15;;
62679;SDS011;48746;55.578;37.902;2022-08-03T05:50:39;25.08;;;8.15;;
62679;SDS011;48746;55.578;37.902;2022-08-03T05:53:05;14.82;;;7.10;;
62679;SDS011;48746;55.578;37.902;2022-08-03T05:55:34;9.95;;;7.07;;
62679;SDS011;48746;55.578;37.902;2022-08-03T05:58:01;12.93;;;7.28;;
62679;SDS011;48746;55.578;37.902;2022-08-03T06:00:28;16.90;;;6.88;;
62679;SDS011;48746;55.578;37.902;2022-08-03T06:02:54;16.20;;;7.35;;
62679;SDS011;48746;55.578;37.902;2022-08-03T06:05:23;14.85;;;6.70;;
62679;SDS011;48746;55.578;37.902;2022-08-03T06:07:53;15.82;;;6.95;;
62679;SDS011;48746;55.578;37.902;2022-08-03T06:10:19;11.73;;;6.47;;
62679;SDS011;48746;55.578;37.902;2022-08-03T06:12:45;15.00;;;6.82;;
62679;SDS011;48746;55.578;37.902;2022-08-03T06:15:17;11.55;;;6.40;;
62679;SDS011;48746;55.578;37.902;2022-08-03T06:17:47;16.25;;;6.32;;
62679;SDS011;48746;55.578;37.902;2022-08-03T06:20:17;12.50;;;6.68;;
62679;SDS011;48746;55.578;37.902;2022-08-03T06:22:45;12.27;;;6.43;;
62679;SDS011;48746;55.578;37.902;2022-08-03T06:25:17;17.80;;;6.35;;
62679;SDS011;48746;55.578;37.902;2022-08-03T06:30:11;13.77;;;6.10;;
62679;SDS011;48746;55.578;37.902;2022-08-03T06:32:39;16.30;;;6.63;;
62679;SDS011;48746;55.578;37.902;2022-08-03T06:35:09;11.57;;;6.20;;
62679;SDS011;48746;55.578;37.902;2022-08-03T06:37:45;15.07;;;6.03;;
62679;SDS011;48746;55.578;37.902;2022-08-03T06:40:15;14.13;;;5.90;;
62679;SDS011;48746;55.578;37.902;2022-08-03T06:42:45;6.88;;;5.40;;
62679;SDS011;48746;55.578;37.902;2022-08-03T06:45:14;10.23;;;5.22;;
62679;SDS011;48746;55.578;37.902;2022-08-03T06:47:40;11.93;;;6.20;;
62679;SDS011;48746;55.578;37.902;2022-08-03T06:50:07;8.57;;;5.55;;
62679;SDS011;48746;55.578;37.902;2022-08-03T06:52:34;15.02;;;6.00;;
62679;SDS011;48746;55.578;37.902;2022-08-03T06:55:04;13.70;;;5.40;;
62679;SDS011;48746;55.578;37.902;2022-08-03T06:57:31;9.27;;;5.05;;
62679;SDS011;48746;55.578;37.902;2022-08-03T06:59:57;8.50;;;5.20;;
62679;SDS011;48746;55.578;37.902;2022-08-03T07:02:28;7.25;;;5.07;;
62679;SDS011;48746;55.578;37.902;2022-08-03T07:04:54;12.30;;;5.28;;
62679;SDS011;48746;55.578;37.902;2022-08-03T07:07:21;18.40;;;5.53;;
62679;SDS011;48746;55.578;37.902;2022-08-03T07:09:47;10.60;;;5.55;;
62679;SDS011;48746;55.578;37.902;2022-08-03T07:12:13;7.38;;;5.18;;
62679;SDS011;48746;55.578;37.902;2022-08-03T07:14:39;10.63;;;5.40;;
62679;SDS011;48746;55.578;37.902;2022-08-03T07:17:05;9.73;;;4.97;;
62679;SDS011;48746;55.578;37.902;2022-08-03T07:19:32;8.55;;;5.28;;
62679;SDS011;48746;55.578;37.902;2022-08-03T07:21:58;8.85;;;5.32;;
62679;SDS011;48746;55.578;37.902;2022-08-03T07:24:24;9.95;;;5.65;;
62679;SDS011;48746;55.578;37.902;2022-08-03T07:26:51;14.80;;;4.95;;
62679;SDS011;48746;55.578;37.902;2022-08-03T07:29:17;10.45;;;5.45;;
62679;SDS011;48746;55.578;37.902;2022-08-03T07:31:43;10.45;;;5.68;;
62679;SDS011;48746;55.578;37.902;2022-08-03T07:34:11;9.73;;;5.70;;
62679;SDS011;48746;55.578;37.902;2022-08-03T07:39:44;6.18;;;4.10;;
62679;SDS011;48746;55.578;37.902;2022-08-03T07:42:10;6.60;;;4.40;;
62679;SDS011;48746;55.578;37.902;2022-08-03T07:44:37;14.45;;;5.18;;
62679;SDS011;48746;55.578;37.902;2022-08-03T07:47:04;13.18;;;5.00;;
62679;SDS011;48746;55.578;37.902;2022-08-03T07:49:30;11.85;;;4.50;;
62679;SDS011;48746;55.578;37.902;2022-08-03T07:51:57;13.18;;;4.72;;
62679;SDS011;48746;55.578;37.902;2022-08-03T07:54:42;10.85;;;4.90;;
62679;SDS011;48746;55.578;37.902;2022-08-03T07:57:08;8.93;;;4.25;;
62679;SDS011;48746;55.578;37.902;2022-08-03T07:59:34;5.15;;;3.92;;
62679;SDS011;48746;55.578;37.902;2022-08-03T08:02:00;7.72;;;4.78;;
62679;SDS011;48746;55.578;37.902;2022-08-03T08:04:28;9.48;;;4.63;;
62679;SDS011;48746;55.578;37.902;2022-08-03T08:06:57;12.80;;;4.80;;
62679;SDS011;48746;55.578;37.902;2022-08-03T08:09:23;4.43;;;3.58;;
62679;SDS011;48746;55.578;37.902;2022-08-03T08:11:49;7.57;;;3.92;;
62679;SDS011;48746;55.578;37.902;2022-08-03T08:14:15;14.23;;;4.43;;
62679;SDS011;48746;55.578;37.902;2022-08-03T08:16:45;7.68;;;4.03;;
62679;SDS011;48746;55.578;37.902;2022-08-03T08:19:12;7.93;;;4.07;;
62679;SDS011;48746;55.578;37.902;2022-08-03T08:21:41;6.43;;;3.13;;
62679;SDS011;48746;55.578;37.902;2022-08-03T08:24:08;10.07;;;3.90;;
62679;SDS011;48746;55.578;37.902;2022-08-03T08:26:34;14.45;;;4.03;;
62679;SDS011;48746;55.578;37.902;2022-08-03T08:29:02;9.13;;;4.03;;
62679;SDS011;48746;55.578;37.902;2022-08-03T08:31:28;12.88;;;3.55;;
62679;SDS011;48746;55.578;37.902;2022-08-03T08:33:55;7.97;;;3.92;;
62679;SDS011;48746;55.578;37.902;2022-08-03T08:36:24;7.40;;;4.00;;
62679;SDS011;48746;55.578;37.902;2022-08-03T08:38:50;13.55;;;4.00;;
62679;SDS011;48746;55.578;37.902;2022-08-03T08:41:17;6.45;;;3.33;;
62679;SDS011;48746;55.578;37.902;2022-08-03T08:43:44;12.50;;;3.70;;
62679;SDS011;48746;55.578;37.902;2022-08-03T08:46:13;5.72;;;3.58;;
62679;SDS011;48746;55.578;37.902;2022-08-03T08:48:40;12.75;;;3.85;;
62679;SDS011;48746;55.578;37.902;2022-08-03T08:51:07;7.10;;;3.90;;
62679;SDS011;48746;55.578;37.902;2022-08-03T08:53:35;6.07;;;4.03;;
62679;SDS011;48746;55.578;37.902;2022-08-03T08:56:02;5.53;;;3.72;;
62679;SDS011;48746;55.578;37.902;2022-08-03T08:58:29;9.07;;;4.00;;
62679;SDS011;48746;55.578;37.902;2022-08-03T09:01:00;9.38;;;4.00;;
62679;SDS011;48746;55.578;37.902;2022-08-03T09:03:25;6.05;;;3.72;;
62679;SDS011;48746;55.578;37.902;2022-08-03T09:05:54;10.32;;;3.92;;
62679;SDS011;48746;55.578;37.902;2022-08-03T09:08:20;6.38;;;3.80;;
62679;SDS011;48746;55.578;37.902;2022-08-03T09:10:47;6.35;;;4.00;;
62679;SDS011;48746;55.578;37.902;2022-08-03T09:13:14;7.68;;;3.95;;
62679;SDS011;48746;55.578;37.902;2022-08-03T09:15:43;12.27;;;4.13;;
62679;SDS011;48746;55.578;37.902;2022-08-03T09:18:10;9.65;;;4.22;;
62679;SDS011;48746;55.578;37.902;2022-08-03T09:20:37;9.23;;;4.18;;
62679;SDS011;48746;55.578;37.902;2022-08-03T09:23:05;10.75;;;3.85;;
62679;SDS011;48746;55.578;37.902;2022-08-03T09:25:39;10.80;;;4.90;;
62679;SDS011;48746;55.578;37.902;2022-08-03T09:28:07;13.30;;;4.00;;
62679;SDS011;48746;55.578;37.902;2022-08-03T09:30:37;6.18;;;3.75;;
62679;SDS011;48746;55.578;37.902;2022-08-03T09:33:05;6.70;;;3.78;;
62679;SDS011;48746;55.578;37.902;2022-08-03T09:35:39;8.15;;;3.90;;
62679;SDS011;48746;55.578;37.902;2022-08-03T09:38:16;6.70;;;3.90;;
62679;SDS011;48746;55.578;37.902;2022-08-03T09:40:54;7.13;;;3.53;;
62679;SDS011;48746;55.578;37.902;2022-08-03T09:43:21;7.38;;;3.70;;
62679;SDS011;48746;55.578;37.902;2022-08-03T09:46:01;11.55;;;4.30;;
62679;SDS011;48746;55.578;37.902;2022-08-03T09:48:29;9.35;;;3.80;;
62679;SDS011;48746;55.578;37.902;2022-08-03T09:51:00;16.15;;;4.03;;
62679;SDS011;48746;55.578;37.902;2022-08-03T09:53:28;9.15;;;5.03;;
62679;SDS011;48746;55.578;37.902;2022-08-03T09:55:56;10.57;;;3.90;;
62679;SDS011;48746;55.578;37.902;2022-08-03T09:58:29;10.88;;;4.40;;
62679;SDS011;48746;55.578;37.902;2022-08-03T10:00:57;4.88;;;3.95;;
62679;SDS011;48746;55.578;37.902;2022-08-03T10:03:30;8.15;;;3.72;;
62679;SDS011;48746;55.578;37.902;2022-08-03T10:06:17;8.02;;;4.15;;
62679;SDS011;48746;55.578;37.902;2022-08-03T10:08:44;8.32;;;4.10;;
62679;SDS011;48746;55.578;37.902;2022-08-03T10:11:11;9.93;;;4.22;;
62679;SDS011;48746;55.578;37.902;2022-08-03T10:13:37;9.02;;;4.72;;
62679;SDS011;48746;55.578;37.902;2022-08-03T10:16:04;8.43;;;4.43;;
62679;SDS011;48746;55.578;37.902;2022-08-03T10:18:32;7.20;;;4.72;;
62679;SDS011;48746;55.578;37.902;2022-08-03T10:21:02;5.50;;;3.90;;
62679;SDS011;48746;55.578;37.902;2022-08-03T10:23:32;7.18;;;4.18;;
62679;SDS011;48746;55.578;37.902;2022-08-03T10:28:34;10.40;;;4.10;;
62679;SDS011;48746;55.578;37.902;2022-08-03T10:31:03;6.45;;;4.20;;
62679;SDS011;48746;55.578;37.902;2022-08-03T10:33:33;8.68;;;4.10;;
62679;SDS011;48746;55.578;37.902;2022-08-03T10:36:05;8.30;;;4.00;;
62679;SDS011;48746;55.578;37.902;2022-08-03T10:38:34;6.70;;;3.80;;
62679;SDS011;48746;55.578;37.902;2022-08-03T10:41:04;4.65;;;4.10;;
62679;SDS011;48746;55.578;37.902;2022-08-03T10:43:33;5.95;;;3.97;;
62679;SDS011;48746;55.578;37.902;2022-08-03T10:46:07;7.07;;;4.07;;
62679;SDS011;48746;55.578;37.902;2022-08-03T10:48:33;7.00;;;3.70;;
62679;SDS011;48746;55.578;37.902;2022-08-03T10:51:00;10.45;;;4.10;;
62679;SDS011;48746;55.578;37.902;2022-08-03T10:53:59;5.50;;;4.00;;
62679;SDS011;48746;55.578;37.902;2022-08-03T11:02:47;10.68;;;4.18;;
62679;SDS011;48746;55.578;37.902;2022-08-03T11:08:34;6.07;;;4.10;;
62679;SDS011;48746;55.578;37.902;2022-08-03T11:11:02;9.82;;;4.40;;
62679;SDS011;48746;55.578;37.902;2022-08-03T11:19:45;8.18;;;4.10;;
62679;SDS011;48746;55.578;37.902;2022-08-03T11:22:13;10.75;;;4.18;;
62679;SDS011;48746;55.578;37.902;2022-08-03T11:29:57;7.65;;;4.22;;
62679;SDS011;48746;55.578;37.902;2022-08-03T11:35:12;8.63;;;4.72;;
62679;SDS011;48746;55.578;37.902;2022-08-03T11:45:58;10.88;;;4.65;;
62679;SDS011;48746;55.578;37.902;2022-08-03T11:50:54;8.00;;;3.95;;
62679;SDS011;48746;55.578;37.902;2022-08-03T11:53:21;12.07;;;5.32;;
62679;SDS011;48746;55.578;37.902;2022-08-03T11:55:51;8.30;;;4.53;;
62679;SDS011;48746;55.578;37.902;2022-08-03T11:58:20;4.80;;;4.40;;
62679;SDS011;48746;55.578;37.902;2022-08-03T12:00:48;24.70;;;5.88;;
62679;SDS011;48746;55.578;37.902;2022-08-03T12:03:15;7.97;;;4.60;;
62679;SDS011;48746;55.578;37.902;2022-08-03T12:05:47;9.48;;;4.18;;
62679;SDS011;48746;55.578;37.902;2022-08-03T12:08:16;7.50;;;4.20;;
62679;SDS011;48746;55.578;37.902;2022-08-03T12:10:45;14.55;;;4.03;;
62679;SDS011;48746;55.578;37.902;2022-08-03T12:13:14;11.63;;;4.40;;
62679;SDS011;48746;55.578;37.902;2022-08-03T12:15:49;6.97;;;4.15;;
62679;SDS011;48746;55.578;37.902;2022-08-03T12:18:19;6.25;;;4.80;;
62679;SDS011;48746;55.578;37.902;2022-08-03T12:20:47;6.68;;;4.00;;
62679;SDS011;48746;55.578;37.902;2022-08-03T12:23:14;5.47;;;3.95;;
62679;SDS011;48746;55.578;37.902;2022-08-03T12:25:44;6.57;;;4.28;;
62679;SDS011;48746;55.578;37.902;2022-08-03T12:30:48;9.27;;;4.00;;
62679;SDS011;48746;55.578;37.902;2022-08-03T12:33:17;8.77;;;4.07;;
62679;SDS011;48746;55.578;37.902;2022-08-03T12:38:29;10.32;;;5.40;;
62679;SDS011;48746;55.578;37.902;2022-08-03T12:40:57;8.55;;;4.63;;
62679;SDS011;48746;55.578;37.902;2022-08-03T12:43:24;8.88;;;4.15;;
62679;SDS011;48746;55.578;37.902;2022-08-03T12:45:51;11.63;;;5.10;;
62679;SDS011;48746;55.578;37.902;2022-08-03T12:48:17;10.88;;;4.63;;
62679;SDS011;48746;55.578;37.902;2022-08-03T12:50:43;12.20;;;4.65;;
62679;SDS011;48746;55.578;37.902;2022-08-03T12:53:10;4.85;;;4.18;;
62679;SDS011;48746;55.578;37.902;2022-08-03T12:55:39;12.95;;;5.25;;
62679;SDS011;48746;55.578;37.902;2022-08-03T12:58:06;13.73;;;5.85;;
62679;SDS011;48746;55.578;37.902;2022-08-03T13:00:35;12.35;;;4.63;;
62679;SDS011;48746;55.578;37.902;2022-08-03T13:03:03;9.48;;;5.28;;
62679;SDS011;48746;55.578;37.902;2022-08-03T13:08:18;17.55;;;8.60;;
62679;SDS011;48746;55.578;37.902;2022-08-03T13:10:46;12.30;;;5.20;;
62679;SDS011;48746;55.578;37.902;2022-08-03T13:13:12;7.85;;;4.55;;
62679;SDS011;48746;55.578;37.902;2022-08-03T13:15:42;9.55;;;4.88;;
62679;SDS011;48746;55.578;37.902;2022-08-03T13:18:08;12.27;;;5.13;;
62679;SDS011;48746;55.578;37.902;2022-08-03T13:20:34;8.65;;;5.68;;
62679;SDS011;48746;55.578;37.902;2022-08-03T13:23:00;11.73;;;5.13;;
62679;SDS011;48746;55.578;37.902;2022-08-03T13:25:30;17.63;;;5.55;;
62679;SDS011;48746;55.578;37.902;2022-08-03T13:27:56;13.90;;;5.40;;
62679;SDS011;48746;55.578;37.902;2022-08-03T13:30:22;10.93;;;4.80;;
62679;SDS011;48746;55.578;37.902;2022-08-03T13:32:49;18.42;;;5.82;;
62679;SDS011;48746;55.578;37.902;2022-08-03T13:35:18;9.57;;;4.78;;
62679;SDS011;48746;55.578;37.902;2022-08-03T13:37:44;17.23;;;5.33;;
62679;SDS011;48746;55.578;37.902;2022-08-03T13:40:11;15.77;;;5.95;;
62679;SDS011;48746;55.578;37.902;2022-08-03T13:42:37;11.98;;;5.05;;
62679;SDS011;48746;55.578;37.902;2022-08-03T13:45:04;7.97;;;4.65;;
62679;SDS011;48746;55.578;37.902;2022-08-03T13:47:31;9.00;;;4.40;;
62679;SDS011;48746;55.578;37.902;2022-08-03T13:49:57;9.35;;;5.32;;
62679;SDS011;48746;55.578;37.902;2022-08-03T13:52:23;10.55;;;5.03;;
62679;SDS011;48746;55.578;37.902;2022-08-03T13:54:49;6.25;;;4.78;;
62679;SDS011;48746;55.578;37.902;2022-08-03T13:57:16;6.80;;;5.03;;
62679;SDS011;48746;55.578;37.902;2022-08-03T13:59:42;7.93;;;4.72;;
62679;SDS011;48746;55.578;37.902;2022-08-03T14:02:08;8.25;;;4.55;;
62679;SDS011;48746;55.578;37.902;2022-08-03T14:04:35;9.80;;;4.88;;
62679;SDS011;48746;55.578;37.902;2022-08-03T14:10:08;7.63;;;4.95;;
62679;SDS011;48746;55.578;37.902;2022-08-03T14:12:34;19.13;;;5.50;;
62679;SDS011;48746;55.578;37.902;2022-08-03T14:15:00;11.20;;;6.10;;
62679;SDS011;48746;55.578;37.902;2022-08-03T14:17:26;11.25;;;5.28;;
62679;SDS011;48746;55.578;37.902;2022-08-03T14:19:52;8.50;;;5.03;;
62679;SDS011;48746;55.578;37.902;2022-08-03T14:22:19;10.02;;;5.10;;
62679;SDS011;48746;55.578;37.902;2022-08-03T14:24:45;6.43;;;4.43;;
62679;SDS011;48746;55.578;37.902;2022-08-03T14:27:11;12.57;;;4.75;;
62679;SDS011;48746;55.578;37.902;2022-08-03T14:29:38;9.90;;;4.95;;
62679;SDS011;48746;55.578;37.902;2022-08-03T14:32:04;9.18;;;4.15;;
62679;SDS011;48746;55.578;37.902;2022-08-03T14:34:30;12.80;;;4.20;;
62679;SDS011;48746;55.578;37.902;2022-08-03T14:36:57;8.40;;;4.47;;
62679;SDS011;48746;55.578;37.902;2022-08-03T14:39:23;9.68;;;4.68;;
62679;SDS011;48746;55.578;37.902;2022-08-03T14:41:49;10.13;;;5.00;;
62679;SDS011;48746;55.578;37.902;2022-08-03T14:44:16;11.43;;;4.63;;
62679;SDS011;48746;55.578;37.902;2022-08-03T14:49:49;11.95;;;4.35;;
62679;SDS011;48746;55.578;37.902;2022-08-03T14:52:15;7.25;;;4.50;;
62679;SDS011;48746;55.578;37.902;2022-08-03T14:54:42;10.35;;;4.90;;
62679;SDS011;48746;55.578;37.902;2022-08-03T14:57:08;6.63;;;4.10;;
62679;SDS011;48746;55.578;37.902;2022-08-03T14:59:34;14.15;;;4.65;;
62679;SDS011;48746;55.578;37.902;2022-08-03T15:02:01;9.35;;;4.50;;
62679;SDS011;48746;55.578;37.902;2022-08-03T15:04:27;8.80;;;4.60;;
62679;SDS011;48746;55.578;37.902;2022-08-03T15:06:54;19.85;;;5.03;;
62679;SDS011;48746;55.578;37.902;2022-08-03T15:09:20;8.57;;;4.72;;
62679;SDS011;48746;55.578;37.902;2022-08-03T15:11:46;11.27;;;4.50;;
62679;SDS011;48746;55.578;37.902;2022-08-03T15:14:12;10.32;;;5.70;;
62679;SDS011;48746;55.578;37.902;2022-08-03T15:19:45;13.93;;;4.72;;
62679;SDS011;48746;55.578;37.902;2022-08-03T15:22:11;14.52;;;4.97;;
62679;SDS011;48746;55.578;37.902;2022-08-03T15:24:40;8.55;;;4.72;;
62679;SDS011;48746;55.578;37.902;2022-08-03T15:27:06;10.13;;;4.72;;
62679;SDS011;48746;55.578;37.902;2022-08-03T15:29:32;23.10;;;5.50;;
62679;SDS011;48746;55.578;37.902;2022-08-03T15:31:59;9.20;;;5.00;;
62679;SDS011;48746;55.578;37.902;2022-08-03T15:34:25;12.27;;;5.82;;
62679;SDS011;48746;55.578;37.902;2022-08-03T15:36:51;9.85;;;5.40;;
62679;SDS011;48746;55.578;37.902;2022-08-03T15:39:17;11.50;;;4.80;;
62679;SDS011;48746;55.578;37.902;2022-08-03T15:41:44;15.02;;;4.78;;
62679;SDS011;48746;55.578;37.902;2022-08-03T15:44:10;9.10;;;5.38;;
62679;SDS011;48746;55.578;37.902;2022-08-03T15:49:47;21.15;;;6.07;;
62679;SDS011;48746;55.578;37.902;2022-08-03T15:52:13;19.85;;;5.80;;
62679;SDS011;48746;55.578;37.902;2022-08-03T15:54:39;14.45;;;5.03;;
62679;SDS011;48746;55.578;37.902;2022-08-03T15:57:05;10.68;;;4.78;;
62679;SDS011;48746;55.578;37.902;2022-08-03T15:59:31;16.55;;;5.05;;
62679;SDS011;48746;55.578;37.902;2022-08-03T16:01:58;19.92;;;6.30;;